sensor_id;sensor_type;location;lat;lon;timestamp;pressure;altitude;pressure_sealevel;temperature;humidity
64211;BME280;50528;48.514;14.394;2023-03-21T00:00:29;93968.05;;;7.50;77.77
64211;BME280;50528;48.514;14.394;2023-03-21T00:01:22;93970.08;;;7.46;77.68
64211;BME280;50528;48.514;14.394;2023-03-21T00:01:55;93971.13;;;7.46;77.82
64211;BME280;50528;48.514;14.394;2023-03-21T00:02:29;93972.25;;;7.46;77.87
64211;BME280;50528;48.514;14.394;2023-03-21T00:03:04;93969.90;;;7.44;77.78
64211;BME280;50528;48.514;14.394;2023-03-21T00:03:38;93969.73;;;7.44;77.80
64211;BME280;50528;48.514;14.394;2023-03-21T00:04:11;93969.59;;;7.43;77.59
64211;BME280;50528;48.514;14.394;2023-03-21T00:04:45;93971.33;;;7.41;77.44
64211;BME280;50528;48.514;14.394;2023-03-21T00:05:25;93969.20;;;7.37;77.14
64211;BME280;50528;48.514;14.394;2023-03-21T00:06:06;93967.55;;;7.34;77.11
64211;BME280;50528;48.514;14.394;2023-03-21T00:06:41;93968.99;;;7.32;76.96
64211;BME280;50528;48.514;14.394;2023-03-21T00:07:15;93970.55;;;7.28;76.81
64211;BME280;50528;48.514;14.394;2023-03-21T00:07:49;93972.60;;;7.27;76.74
64211;BME280;50528;48.514;14.394;2023-03-21T00:08:24;93973.17;;;7.26;76.58
64211;BME280;50528;48.514;14.394;2023-03-21T00:08:58;93975.41;;;7.24;76.41
64211;BME280;50528;48.514;14.394;2023-03-21T00:09:31;93975.19;;;7.22;76.34
64211;BME280;50528;48.514;14.394;2023-03-21T00:10:05;93977.40;;;7.21;76.24
64211;BME280;50528;48.514;14.394;2023-03-21T00:11:00;93978.71;;;7.17;76.31
64211;BME280;50528;48.514;14.394;2023-03-21T00:11:34;93977.48;;;7.14;76.22
64211;BME280;50528;48.514;14.394;2023-03-21T00:12:07;93977.72;;;7.13;76.27
64211;BME280;50528;48.514;14.394;2023-03-21T00:12:43;93978.17;;;7.12;76.27
64211;BME280;50528;48.514;14.394;2023-03-21T00:13:17;93980.32;;;7.10;76.25
64211;BME280;50528;48.514;14.394;2023-03-21T00:13:51;93980.16;;;7.09;76.21
64211;BME280;50528;48.514;14.394;2023-03-21T00:14:26;93982.39;;;7.08;76.19
64211;BME280;50528;48.514;14.394;2023-03-21T00:15:05;93981.31;;;7.06;76.19
64211;BME280;50528;48.514;14.394;2023-03-21T00:15:42;93979.52;;;7.04;76.10
64211;BME280;50528;48.514;14.394;2023-03-21T00:16:47;93982.20;;;6.98;76.16
64211;BME280;50528;48.514;14.394;2023-03-21T00:17:25;93978.69;;;6.96;76.28
64211;BME280;50528;48.514;14.394;2023-03-21T00:18:04;93977.44;;;6.96;76.25
64211;BME280;50528;48.514;14.394;2023-03-21T00:18:48;93979.35;;;6.95;76.17
64211;BME280;50528;48.514;14.394;2023-03-21T00:19:24;93977.73;;;6.93;76.21
64211;BME280;50528;48.514;14.394;2023-03-21T00:19:59;93979.16;;;6.88;76.24
64211;BME280;50528;48.514;14.394;2023-03-21T00:20:32;93976.89;;;6.87;76.34
64211;BME280;50528;48.514;14.394;2023-03-21T00:21:15;93977.15;;;6.85;76.29
64211;BME280;50528;48.514;14.394;2023-03-21T00:22:08;93978.75;;;6.83;76.39
64211;BME280;50528;48.514;14.394;2023-03-21T00:22:42;93977.14;;;6.82;76.53
64211;BME280;50528;48.514;14.394;2023-03-21T00:23:16;93977.77;;;6.83;76.53
64211;BME280;50528;48.514;14.394;2023-03-21T00:23:49;93975.15;;;6.83;76.56
64211;BME280;50528;48.514;14.394;2023-03-21T00:24:23;93976.83;;;6.84;76.62
64211;BME280;50528;48.514;14.394;2023-03-21T00:24:56;93977.27;;;6.84;76.64
64211;BME280;50528;48.514;14.394;2023-03-21T00:25:30;93979.48;;;6.83;76.58
64211;BME280;50528;48.514;14.394;2023-03-21T00:26:05;93978.06;;;6.82;76.59
64211;BME280;50528;48.514;14.394;2023-03-21T00:26:38;93978.59;;;6.82;76.53
64211;BME280;50528;48.514;14.394;2023-03-21T00:27:12;93978.58;;;6.80;76.43
64211;BME280;50528;48.514;14.394;2023-03-21T00:28:05;93976.67;;;6.74;76.35
64211;BME280;50528;48.514;14.394;2023-03-21T00:28:41;93977.45;;;6.72;76.44
64211;BME280;50528;48.514;14.394;2023-03-21T00:29:15;93979.46;;;6.71;76.39
64211;BME280;50528;48.514;14.394;2023-03-21T00:29:51;93974.70;;;6.70;76.31
64211;BME280;50528;48.514;14.394;2023-03-21T00:30:25;93974.46;;;6.69;76.23
64211;BME280;50528;48.514;14.394;2023-03-21T00:30:59;93975.63;;;6.68;76.22
64211;BME280;50528;48.514;14.394;2023-03-21T00:31:33;93976.63;;;6.67;76.18
64211;BME280;50528;48.514;14.394;2023-03-21T00:32:06;93976.68;;;6.67;76.19
64211;BME280;50528;48.514;14.394;2023-03-21T00:32:40;93975.07;;;6.67;76.15
64211;BME280;50528;48.514;14.394;2023-03-21T00:33:27;93975.11;;;6.65;76.20
64211;BME280;50528;48.514;14.394;2023-03-21T00:34:02;93973.88;;;6.64;76.25
64211;BME280;50528;48.514;14.394;2023-03-21T00:34:36;93975.04;;;6.64;76.25
64211;BME280;50528;48.514;14.394;2023-03-21T00:35:20;93972.67;;;6.63;76.38
64211;BME280;50528;48.514;14.394;2023-03-21T00:36:14;93973.81;;;6.61;76.44
64211;BME280;50528;48.514;14.394;2023-03-21T00:36:48;93974.09;;;6.62;76.43
64211;BME280;50528;48.514;14.394;2023-03-21T00:37:21;93972.31;;;6.64;76.57
64211;BME280;50528;48.514;14.394;2023-03-21T00:37:55;93975.64;;;6.65;76.61
64211;BME280;50528;48.514;14.394;2023-03-21T00:38:28;93972.79;;;6.66;76.71
64211;BME280;50528;48.514;14.394;2023-03-21T00:39:02;93964.88;;;6.63;76.75
64211;BME280;50528;48.514;14.394;2023-03-21T00:39:38;93970.54;;;6.67;76.94
64211;BME280;50528;48.514;14.394;2023-03-21T00:40:11;93970.56;;;6.70;76.96
64211;BME280;50528;48.514;14.394;2023-03-21T00:41:08;93967.95;;;6.70;77.06
64211;BME280;50528;48.514;14.394;2023-03-21T00:41:58;93966.02;;;6.68;77.23
64211;BME280;50528;48.514;14.394;2023-03-21T00:42:31;93961.88;;;6.69;77.23
64211;BME280;50528;48.514;14.394;2023-03-21T00:43:04;93964.54;;;6.72;77.26
64211;BME280;50528;48.514;14.394;2023-03-21T00:43:40;93963.38;;;6.73;77.38
64211;BME280;50528;48.514;14.394;2023-03-21T00:44:14;93960.92;;;6.75;77.43
64211;BME280;50528;48.514;14.394;2023-03-21T00:44:48;93956.69;;;6.76;77.43
64211;BME280;50528;48.514;14.394;2023-03-21T00:45:21;93956.93;;;6.78;77.56
64211;BME280;50528;48.514;14.394;2023-03-21T00:45:56;93959.01;;;6.79;77.51
64211;BME280;50528;48.514;14.394;2023-03-21T00:46:30;93957.48;;;6.80;77.59
64211;BME280;50528;48.514;14.394;2023-03-21T00:47:19;93961.65;;;6.80;77.59
64211;BME280;50528;48.514;14.394;2023-03-21T00:47:55;93959.68;;;6.81;77.63
64211;BME280;50528;48.514;14.394;2023-03-21T00:48:29;93959.33;;;6.81;77.70
64211;BME280;50528;48.514;14.394;2023-03-21T00:49:02;93963.40;;;6.85;77.78
64211;BME280;50528;48.514;14.394;2023-03-21T00:49:36;93957.27;;;6.87;77.85
64211;BME280;50528;48.514;14.394;2023-03-21T00:50:10;93958.68;;;6.86;78.02
64211;BME280;50528;48.514;14.394;2023-03-21T00:50:45;93963.65;;;6.87;77.95
64211;BME280;50528;48.514;14.394;2023-03-21T00:51:21;93961.24;;;6.88;77.95
64211;BME280;50528;48.514;14.394;2023-03-21T00:51:59;93960.77;;;6.88;78.09
64211;BME280;50528;48.514;14.394;2023-03-21T00:52:50;93961.54;;;6.87;78.00
64211;BME280;50528;48.514;14.394;2023-03-21T00:53:24;93957.73;;;6.88;78.02
64211;BME280;50528;48.514;14.394;2023-03-21T00:53:58;93959.55;;;6.90;78.14
64211;BME280;50528;48.514;14.394;2023-03-21T00:54:33;93959.09;;;6.92;78.15
64211;BME280;50528;48.514;14.394;2023-03-21T00:55:13;93955.98;;;6.93;78.22
64211;BME280;50528;48.514;14.394;2023-03-21T00:55:47;93955.70;;;6.94;78.24
64211;BME280;50528;48.514;14.394;2023-03-21T00:56:23;93954.90;;;6.95;78.37
64211;BME280;50528;48.514;14.394;2023-03-21T00:56:56;93952.92;;;6.96;78.32
64211;BME280;50528;48.514;14.394;2023-03-21T00:57:30;93954.17;;;6.96;78.36
64211;BME280;50528;48.514;14.394;2023-03-21T00:58:11;93957.80;;;6.98;78.54
64211;BME280;50528;48.514;14.394;2023-03-21T00:58:45;93954.63;;;6.98;78.51
64211;BME280;50528;48.514;14.394;2023-03-21T00:59:23;93948.39;;;7.00;78.43
64211;BME280;50528;48.514;14.394;2023-03-21T00:59:57;93951.29;;;6.99;78.46
64211;BME280;50528;48.514;14.394;2023-03-21T01:00:32;93949.69;;;6.98;78.39
64211;BME280;50528;48.514;14.394;2023-03-21T01:01:07;93949.16;;;6.98;78.51
64211;BME280;50528;48.514;14.394;2023-03-21T01:01:41;93950.58;;;6.98;78.57
64211;BME280;50528;48.514;14.394;2023-03-21T01:02:15;93951.73;;;6.98;78.53
64211;BME280;50528;48.514;14.394;2023-03-21T01:02:55;93953.07;;;6.97;78.52
64211;BME280;50528;48.514;14.394;2023-03-21T01:03:49;93949.14;;;6.95;78.52
64211;BME280;50528;48.514;14.394;2023-03-21T01:04:38;93948.00;;;6.91;78.33
64211;BME280;50528;48.514;14.394;2023-03-21T01:05:12;93947.98;;;6.88;78.43
64211;BME280;50528;48.514;14.394;2023-03-21T01:06:05;93948.78;;;6.84;78.39
64211;BME280;50528;48.514;14.394;2023-03-21T01:06:41;93948.73;;;6.82;78.37
64211;BME280;50528;48.514;14.394;2023-03-21T01:07:15;93947.74;;;6.82;78.34
64211;BME280;50528;48.514;14.394;2023-03-21T01:07:49;93946.30;;;6.81;78.32
64211;BME280;50528;48.514;14.394;2023-03-21T01:08:26;93947.04;;;6.79;78.29
64211;BME280;50528;48.514;14.394;2023-03-21T01:09:17;93946.48;;;6.77;78.17
64211;BME280;50528;48.514;14.394;2023-03-21T01:09:51;93949.02;;;6.75;78.07
64211;BME280;50528;48.514;14.394;2023-03-21T01:10:25;93945.30;;;6.73;77.94
64211;BME280;50528;48.514;14.394;2023-03-21T01:11:07;93944.13;;;6.70;77.90
64211;BME280;50528;48.514;14.394;2023-03-21T01:11:44;93949.34;;;6.70;77.78
64211;BME280;50528;48.514;14.394;2023-03-21T01:12:18;93946.33;;;6.69;77.78
64211;BME280;50528;48.514;14.394;2023-03-21T01:12:51;93948.35;;;6.68;77.68
64211;BME280;50528;48.514;14.394;2023-03-21T01:13:25;93946.13;;;6.65;77.57
64211;BME280;50528;48.514;14.394;2023-03-21T01:13:59;93950.38;;;6.66;77.50
64211;BME280;50528;48.514;14.394;2023-03-21T01:14:52;93943.36;;;6.61;77.40
64211;BME280;50528;48.514;14.394;2023-03-21T01:15:26;93949.35;;;6.61;77.38
64211;BME280;50528;48.514;14.394;2023-03-21T01:16:00;93948.90;;;6.59;77.25
64211;BME280;50528;48.514;14.394;2023-03-21T01:16:35;93945.25;;;6.55;77.18
64211;BME280;50528;48.514;14.394;2023-03-21T01:17:08;93950.41;;;6.57;77.13
64211;BME280;50528;48.514;14.394;2023-03-21T01:17:42;93948.05;;;6.55;77.01
64211;BME280;50528;48.514;14.394;2023-03-21T01:18:17;93948.59;;;6.54;76.97
64211;BME280;50528;48.514;14.394;2023-03-21T01:18:51;93946.19;;;6.51;76.95
64211;BME280;50528;48.514;14.394;2023-03-21T01:19:25;93949.71;;;6.52;76.94
64211;BME280;50528;48.514;14.394;2023-03-21T01:20:20;93949.16;;;6.48;76.79
64211;BME280;50528;48.514;14.394;2023-03-21T01:20:56;93947.98;;;6.45;76.88
64211;BME280;50528;48.514;14.394;2023-03-21T01:21:30;93947.83;;;6.44;77.04
64211;BME280;50528;48.514;14.394;2023-03-21T01:22:04;93947.78;;;6.44;77.13
64211;BME280;50528;48.514;14.394;2023-03-21T01:22:38;93949.53;;;6.43;77.15
64211;BME280;50528;48.514;14.394;2023-03-21T01:23:13;93946.90;;;6.42;77.13
64211;BME280;50528;48.514;14.394;2023-03-21T01:23:47;93945.54;;;6.41;77.29
64211;BME280;50528;48.514;14.394;2023-03-21T01:24:21;93946.08;;;6.40;77.51
64211;BME280;50528;48.514;14.394;2023-03-21T01:24:54;93948.48;;;6.43;77.61
64211;BME280;50528;48.514;14.394;2023-03-21T01:25:46;93949.77;;;6.39;77.76
64211;BME280;50528;48.514;14.394;2023-03-21T01:26:20;93946.70;;;6.36;77.84
64211;BME280;50528;48.514;14.394;2023-03-21T01:26:54;93944.09;;;6.35;77.92
64211;BME280;50528;48.514;14.394;2023-03-21T01:27:27;93947.38;;;6.35;77.94
64211;BME280;50528;48.514;14.394;2023-03-21T01:28:01;93943.09;;;6.33;77.99
64211;BME280;50528;48.514;14.394;2023-03-21T01:28:37;93939.25;;;6.32;78.22
64211;BME280;50528;48.514;14.394;2023-03-21T01:29:11;93944.05;;;6.34;78.46
64211;BME280;50528;48.514;14.394;2023-03-21T01:29:44;93941.44;;;6.34;78.34
64211;BME280;50528;48.514;14.394;2023-03-21T01:30:18;93941.06;;;6.31;78.44
64211;BME280;50528;48.514;14.394;2023-03-21T01:30:56;93942.14;;;6.32;78.49
64211;BME280;50528;48.514;14.394;2023-03-21T01:31:32;93940.57;;;6.32;78.73
64211;BME280;50528;48.514;14.394;2023-03-21T01:32:06;93943.02;;;6.34;78.74
64211;BME280;50528;48.514;14.394;2023-03-21T01:32:39;93937.68;;;6.32;78.84
64211;BME280;50528;48.514;14.394;2023-03-21T01:33:14;93936.84;;;6.32;78.82
64211;BME280;50528;48.514;14.394;2023-03-21T01:33:48;93937.73;;;6.32;79.01
64211;BME280;50528;48.514;14.394;2023-03-21T01:34:22;93939.56;;;6.32;79.07
64211;BME280;50528;48.514;14.394;2023-03-21T01:34:56;93941.27;;;6.31;79.20
64211;BME280;50528;48.514;14.394;2023-03-21T01:35:29;93940.55;;;6.35;79.29
64211;BME280;50528;48.514;14.394;2023-03-21T01:36:16;93939.04;;;6.32;79.33
64211;BME280;50528;48.514;14.394;2023-03-21T01:36:55;93938.32;;;6.32;79.50
64211;BME280;50528;48.514;14.394;2023-03-21T01:37:28;93941.40;;;6.34;79.56
64211;BME280;50528;48.514;14.394;2023-03-21T01:38:02;93941.98;;;6.32;79.51
64211;BME280;50528;48.514;14.394;2023-03-21T01:38:36;93937.84;;;6.30;79.56
64211;BME280;50528;48.514;14.394;2023-03-21T01:39:10;93939.61;;;6.30;79.70
64211;BME280;50528;48.514;14.394;2023-03-21T01:39:46;93936.40;;;6.29;79.61
64211;BME280;50528;48.514;14.394;2023-03-21T01:40:23;93937.70;;;6.28;79.64
64211;BME280;50528;48.514;14.394;2023-03-21T01:41:04;93938.14;;;6.28;79.62
64211;BME280;50528;48.514;14.394;2023-03-21T01:41:51;93934.23;;;6.25;79.66
64211;BME280;50528;48.514;14.394;2023-03-21T01:42:31;93932.35;;;6.24;79.58
64211;BME280;50528;48.514;14.394;2023-03-21T01:43:19;93933.39;;;6.24;79.62
64211;BME280;50528;48.514;14.394;2023-03-21T01:43:56;93933.50;;;6.22;79.63
64211;BME280;50528;48.514;14.394;2023-03-21T01:44:57;93935.04;;;6.21;79.57
64211;BME280;50528;48.514;14.394;2023-03-21T01:47:10;93929.56;;;6.12;79.44
64211;BME280;50528;48.514;14.394;2023-03-21T01:47:51;93929.13;;;6.11;79.56
64211;BME280;50528;48.514;14.394;2023-03-21T01:48:31;93926.47;;;6.12;79.69
64211;BME280;50528;48.514;14.394;2023-03-21T01:49:15;93929.35;;;6.12;79.72
64211;BME280;50528;48.514;14.394;2023-03-21T01:49:56;93925.92;;;6.11;79.82
64211;BME280;50528;48.514;14.394;2023-03-21T01:50:51;93927.33;;;6.09;79.75
64211;BME280;50528;48.514;14.394;2023-03-21T01:51:33;93927.61;;;6.08;79.87
64211;BME280;50528;48.514;14.394;2023-03-21T01:52:13;93928.86;;;6.08;79.89
64211;BME280;50528;48.514;14.394;2023-03-21T01:53:05;93931.07;;;6.05;79.92
64211;BME280;50528;48.514;14.394;2023-03-21T01:53:42;93927.66;;;6.04;79.91
64211;BME280;50528;48.514;14.394;2023-03-21T01:54:20;93928.79;;;6.05;79.93
64211;BME280;50528;48.514;14.394;2023-03-21T01:54:59;93927.50;;;6.04;79.90
64211;BME280;50528;48.514;14.394;2023-03-21T01:55:36;93926.56;;;6.02;79.76
64211;BME280;50528;48.514;14.394;2023-03-21T01:56:24;93929.44;;;6.03;79.79
64211;BME280;50528;48.514;14.394;2023-03-21T01:57:11;93930.46;;;6.01;79.61
64211;BME280;50528;48.514;14.394;2023-03-21T01:57:50;93929.04;;;5.98;79.50
64211;BME280;50528;48.514;14.394;2023-03-21T01:58:55;93930.03;;;5.93;79.25
64211;BME280;50528;48.514;14.394;2023-03-21T02:00:13;93929.67;;;5.87;79.25
64211;BME280;50528;48.514;14.394;2023-03-21T02:00:53;93926.10;;;5.81;79.00
64211;BME280;50528;48.514;14.394;2023-03-21T02:01:37;93924.32;;;5.74;78.94
64211;BME280;50528;48.514;14.394;2023-03-21T02:02:20;93925.26;;;5.71;79.05
64211;BME280;50528;48.514;14.394;2023-03-21T02:03:08;93918.58;;;5.65;78.93
64211;BME280;50528;48.514;14.394;2023-03-21T02:04:04;93912.72;;;5.57;78.96
64211;BME280;50528;48.514;14.394;2023-03-21T02:04:41;93922.90;;;5.62;79.09
64211;BME280;50528;48.514;14.394;2023-03-21T02:06:42;93920.70;;;5.55;79.38
64211;BME280;50528;48.514;14.394;2023-03-21T02:07:31;93916.11;;;5.50;79.29
64211;BME280;50528;48.514;14.394;2023-03-21T02:08:09;93917.57;;;5.48;79.37
64211;BME280;50528;48.514;14.394;2023-03-21T02:08:45;93920.55;;;5.47;79.33
64211;BME280;50528;48.514;14.394;2023-03-21T02:09:24;93915.91;;;5.46;79.37
64211;BME280;50528;48.514;14.394;2023-03-21T02:10:03;93917.06;;;5.47;79.41
64211;BME280;50528;48.514;14.394;2023-03-21T02:10:51;93915.42;;;5.46;79.38
64211;BME280;50528;48.514;14.394;2023-03-21T02:11:38;93915.85;;;5.42;79.53
64211;BME280;50528;48.514;14.394;2023-03-21T02:12:12;93920.80;;;5.41;79.56
64211;BME280;50528;48.514;14.394;2023-03-21T02:12:45;93914.23;;;5.42;79.58
64211;BME280;50528;48.514;14.394;2023-03-21T02:13:19;93914.20;;;5.42;79.60
64211;BME280;50528;48.514;14.394;2023-03-21T02:13:52;93910.11;;;5.42;79.57
64211;BME280;50528;48.514;14.394;2023-03-21T02:14:41;93915.09;;;5.42;79.57
64211;BME280;50528;48.514;14.394;2023-03-21T02:15:22;93899.36;;;5.33;79.66
64211;BME280;50528;48.514;14.394;2023-03-21T02:16:08;93913.77;;;5.42;79.55
64211;BME280;50528;48.514;14.394;2023-03-21T02:17:43;93915.52;;;5.43;79.67
64211;BME280;50528;48.514;14.394;2023-03-21T02:19:30;93912.30;;;5.41;79.81
64211;BME280;50528;48.514;14.394;2023-03-21T02:24:54;93911.39;;;5.39;79.74
64211;BME280;50528;48.514;14.394;2023-03-21T02:27:13;93914.02;;;5.32;79.53
64211;BME280;50528;48.514;14.394;2023-03-21T02:27:58;93917.09;;;5.32;79.64
64211;BME280;50528;48.514;14.394;2023-03-21T02:28:47;93915.28;;;5.33;79.62
64211;BME280;50528;48.514;14.394;2023-03-21T02:30:20;93912.78;;;5.35;79.57
64211;BME280;50528;48.514;14.394;2023-03-21T02:32:20;93912.52;;;5.34;79.51
64211;BME280;50528;48.514;14.394;2023-03-21T02:36:47;93913.27;;;5.39;80.46
64211;BME280;50528;48.514;14.394;2023-03-21T02:37:40;93913.25;;;5.42;80.20
64211;BME280;50528;48.514;14.394;2023-03-21T02:39:11;93912.83;;;5.45;80.14
64211;BME280;50528;48.514;14.394;2023-03-21T02:39:55;93913.25;;;5.47;80.19
64211;BME280;50528;48.514;14.394;2023-03-21T02:40:40;93909.59;;;5.48;80.20
64211;BME280;50528;48.514;14.394;2023-03-21T02:41:21;93907.13;;;5.49;80.29
64211;BME280;50528;48.514;14.394;2023-03-21T02:42:33;93907.55;;;5.51;80.29
64211;BME280;50528;48.514;14.394;2023-03-21T02:43:23;93904.19;;;5.52;80.40
64211;BME280;50528;48.514;14.394;2023-03-21T02:44:27;93905.48;;;5.53;80.38
64211;BME280;50528;48.514;14.394;2023-03-21T02:45:09;93896.22;;;5.53;80.33
64211;BME280;50528;48.514;14.394;2023-03-21T02:46:04;93896.80;;;5.56;80.39
64211;BME280;50528;48.514;14.394;2023-03-21T02:47:04;93898.88;;;5.58;80.45
64211;BME280;50528;48.514;14.394;2023-03-21T02:47:49;93897.64;;;5.60;80.43
64211;BME280;50528;48.514;14.394;2023-03-21T02:48:31;93894.66;;;5.61;80.30
64211;BME280;50528;48.514;14.394;2023-03-21T02:50:51;93893.38;;;5.62;80.49
64211;BME280;50528;48.514;14.394;2023-03-21T02:51:26;93894.79;;;5.58;80.75
64211;BME280;50528;48.514;14.394;2023-03-21T02:52:04;93896.70;;;5.59;80.42
64211;BME280;50528;48.514;14.394;2023-03-21T02:52:51;93898.36;;;5.61;80.20
64211;BME280;50528;48.514;14.394;2023-03-21T02:53:30;93898.11;;;5.61;80.32
64211;BME280;50528;48.514;14.394;2023-03-21T02:54:15;93892.16;;;5.59;80.32
64211;BME280;50528;48.514;14.394;2023-03-21T02:55:14;93895.86;;;5.61;80.61
64211;BME280;50528;48.514;14.394;2023-03-21T02:56:02;93898.63;;;5.61;80.42
64211;BME280;50528;48.514;14.394;2023-03-21T02:56:38;93895.59;;;5.62;80.38
64211;BME280;50528;48.514;14.394;2023-03-21T02:57:16;93891.82;;;5.62;80.39
64211;BME280;50528;48.514;14.394;2023-03-21T02:57:53;93897.27;;;5.64;80.40
64211;BME280;50528;48.514;14.394;2023-03-21T02:58:30;93897.58;;;5.64;80.49
64211;BME280;50528;48.514;14.394;2023-03-21T02:59:05;93893.09;;;5.65;80.47
64211;BME280;50528;48.514;14.394;2023-03-21T02:59:40;93897.61;;;5.65;80.39
64211;BME280;50528;48.514;14.394;2023-03-21T03:00:29;93894.30;;;5.66;80.95
64211;BME280;50528;48.514;14.394;2023-03-21T03:01:05;93894.72;;;5.64;81.00
64211;BME280;50528;48.514;14.394;2023-03-21T03:01:50;93894.73;;;5.63;80.82
64211;BME280;50528;48.514;14.394;2023-03-21T03:02:27;93894.73;;;5.63;81.07
64211;BME280;50528;48.514;14.394;2023-03-21T03:03:01;93896.27;;;5.63;81.18
64211;BME280;50528;48.514;14.394;2023-03-21T03:03:43;93898.90;;;5.64;81.34
64211;BME280;50528;48.514;14.394;2023-03-21T03:04:27;93896.84;;;5.65;81.29
64211;BME280;50528;48.514;14.394;2023-03-21T03:05:14;93895.06;;;5.66;81.31
64211;BME280;50528;48.514;14.394;2023-03-21T03:05:56;93894.39;;;5.66;81.55
64211;BME280;50528;48.514;14.394;2023-03-21T03:06:55;93897.49;;;5.68;81.74
64211;BME280;50528;48.514;14.394;2023-03-21T03:07:49;93894.55;;;5.69;81.73
64211;BME280;50528;48.514;14.394;2023-03-21T03:11:18;93893.10;;;5.71;81.94
64211;BME280;50528;48.514;14.394;2023-03-21T03:12:01;93892.71;;;5.70;81.98
64211;BME280;50528;48.514;14.394;2023-03-21T03:14:33;93894.64;;;5.67;82.07
64211;BME280;50528;48.514;14.394;2023-03-21T03:17:27;93894.52;;;5.68;82.20
64211;BME280;50528;48.514;14.394;2023-03-21T03:19:29;93897.38;;;5.71;82.55
64211;BME280;50528;48.514;14.394;2023-03-21T03:21:16;93898.87;;;5.71;82.49
64211;BME280;50528;48.514;14.394;2023-03-21T03:24:09;93902.28;;;5.66;82.31
64211;BME280;50528;48.514;14.394;2023-03-21T03:25:57;93899.02;;;5.60;82.15
64211;BME280;50528;48.514;14.394;2023-03-21T03:26:35;93887.61;;;5.48;82.17
64211;BME280;50528;48.514;14.394;2023-03-21T03:27:17;93894.15;;;5.55;82.20
64211;BME280;50528;48.514;14.394;2023-03-21T03:27:53;93896.89;;;5.54;82.19
64211;BME280;50528;48.514;14.394;2023-03-21T03:28:33;93895.05;;;5.52;82.08
64211;BME280;50528;48.514;14.394;2023-03-21T03:29:13;93894.16;;;5.51;82.00
64211;BME280;50528;48.514;14.394;2023-03-21T03:29:49;93892.64;;;5.50;81.97
64211;BME280;50528;48.514;14.394;2023-03-21T03:30:27;93892.36;;;5.49;81.92
64211;BME280;50528;48.514;14.394;2023-03-21T03:31:18;93894.97;;;5.47;81.62
64211;BME280;50528;48.514;14.394;2023-03-21T03:32:54;93890.74;;;5.42;81.45
64211;BME280;50528;48.514;14.394;2023-03-21T03:33:32;93890.05;;;5.39;81.30
64211;BME280;50528;48.514;14.394;2023-03-21T03:34:11;93888.70;;;5.37;81.20
64211;BME280;50528;48.514;14.394;2023-03-21T03:34:51;93885.48;;;5.35;81.12
64211;BME280;50528;48.514;14.394;2023-03-21T03:35:30;93888.54;;;5.33;80.98
64211;BME280;50528;48.514;14.394;2023-03-21T03:36:05;93884.81;;;5.32;80.97
64211;BME280;50528;48.514;14.394;2023-03-21T03:36:46;93887.66;;;5.30;80.81
64211;BME280;50528;48.514;14.394;2023-03-21T03:37:27;93885.66;;;5.29;80.76
64211;BME280;50528;48.514;14.394;2023-03-21T03:38:05;93885.94;;;5.28;80.73
64211;BME280;50528;48.514;14.394;2023-03-21T03:38:40;93888.67;;;5.27;80.65
64211;BME280;50528;48.514;14.394;2023-03-21T03:39:16;93886.82;;;5.26;80.66
64211;BME280;50528;48.514;14.394;2023-03-21T03:40:01;93886.39;;;5.25;80.60
64211;BME280;50528;48.514;14.394;2023-03-21T03:40:40;93883.88;;;5.24;80.56
64211;BME280;50528;48.514;14.394;2023-03-21T03:41:37;93885.86;;;5.21;80.44
64211;BME280;50528;48.514;14.394;2023-03-21T03:43:45;93888.27;;;5.14;80.45
64211;BME280;50528;48.514;14.394;2023-03-21T03:44:20;93889.17;;;5.12;80.46
64211;BME280;50528;48.514;14.394;2023-03-21T03:45:00;93889.52;;;5.12;80.17
64211;BME280;50528;48.514;14.394;2023-03-21T03:45:39;93890.14;;;5.07;80.32
64211;BME280;50528;48.514;14.394;2023-03-21T03:46:25;93888.33;;;5.04;80.36
64211;BME280;50528;48.514;14.394;2023-03-21T03:47:00;93890.90;;;5.01;80.43
64211;BME280;50528;48.514;14.394;2023-03-21T03:47:41;93892.00;;;5.00;80.34
64211;BME280;50528;48.514;14.394;2023-03-21T03:48:36;93893.34;;;4.98;80.51
64211;BME280;50528;48.514;14.394;2023-03-21T03:49:22;93892.31;;;4.95;80.40
64211;BME280;50528;48.514;14.394;2023-03-21T03:50:11;93893.20;;;4.93;80.47
64211;BME280;50528;48.514;14.394;2023-03-21T03:50:52;93895.34;;;4.93;80.45
64211;BME280;50528;48.514;14.394;2023-03-21T03:52:00;93897.10;;;4.91;80.40
64211;BME280;50528;48.514;14.394;2023-03-21T03:52:51;93895.25;;;4.87;80.42
64211;BME280;50528;48.514;14.394;2023-03-21T03:53:36;93893.10;;;4.85;80.40
64211;BME280;50528;48.514;14.394;2023-03-21T03:54:22;93892.85;;;4.87;80.46
64211;BME280;50528;48.514;14.394;2023-03-21T03:54:57;93895.33;;;4.87;80.35
64211;BME280;50528;48.514;14.394;2023-03-21T03:55:31;93894.70;;;4.86;80.39
64211;BME280;50528;48.514;14.394;2023-03-21T03:56:15;93895.90;;;4.86;80.36
64211;BME280;50528;48.514;14.394;2023-03-21T03:56:49;93893.85;;;4.86;80.34
64211;BME280;50528;48.514;14.394;2023-03-21T03:57:26;93895.16;;;4.87;80.39
64211;BME280;50528;48.514;14.394;2023-03-21T03:58:00;93896.11;;;4.89;80.38
64211;BME280;50528;48.514;14.394;2023-03-21T03:58:38;93895.82;;;4.87;80.36
64211;BME280;50528;48.514;14.394;2023-03-21T03:59:19;93897.66;;;4.84;80.27
64211;BME280;50528;48.514;14.394;2023-03-21T04:00:04;93897.57;;;4.82;80.37
64211;BME280;50528;48.514;14.394;2023-03-21T04:00:51;93895.70;;;4.80;80.42
64211;BME280;50528;48.514;14.394;2023-03-21T04:01:24;93898.58;;;4.81;80.47
64211;BME280;50528;48.514;14.394;2023-03-21T04:02:01;93895.05;;;4.80;80.52
64211;BME280;50528;48.514;14.394;2023-03-21T04:02:35;93900.73;;;4.82;80.47
64211;BME280;50528;48.514;14.394;2023-03-21T04:03:09;93898.23;;;4.83;80.59
64211;BME280;50528;48.514;14.394;2023-03-21T04:03:46;93899.70;;;4.84;80.54
64211;BME280;50528;48.514;14.394;2023-03-21T04:04:35;93901.79;;;4.84;80.52
64211;BME280;50528;48.514;14.394;2023-03-21T04:05:12;93902.63;;;4.84;80.59
64211;BME280;50528;48.514;14.394;2023-03-21T04:05:46;93901.27;;;4.85;80.60